createdAt,value
2023-02-13T00:01:19.704Z,76.50
2023-02-13T00:03:47.979Z,76.50
2023-02-13T00:06:16.388Z,77.00
2023-02-13T00:08:44.701Z,77.50
2023-02-13T00:11:12.930Z,77.90
2023-02-13T00:13:41.271Z,77.70
2023-02-13T00:16:11.973Z,77.60
2023-02-13T00:18:40.558Z,78.10
2023-02-13T00:21:10.201Z,78.30
2023-02-13T00:23:40.010Z,78.60
2023-02-13T00:26:10.432Z,79.00
2023-02-13T00:28:38.752Z,79.20
2023-02-13T00:31:09.801Z,79.10
2023-02-13T00:33:40.027Z,79.10
2023-02-13T00:36:10.401Z,79.00
2023-02-13T00:38:39.894Z,79.00
2023-02-13T00:41:08.773Z,79.00
2023-02-13T00:43:37.706Z,78.90
2023-02-13T00:46:06.522Z,78.90
2023-02-13T00:48:36.033Z,79.10
2023-02-13T00:51:06.905Z,79.00
2023-02-13T00:53:36.166Z,78.90
2023-02-13T00:56:05.262Z,78.80
2023-02-13T00:58:34.030Z,78.70
2023-02-13T01:01:02.483Z,78.60
2023-02-13T01:03:30.844Z,78.60
2023-02-13T01:05:59.185Z,78.60
2023-02-13T01:08:29.375Z,78.50
2023-02-13T01:10:58.368Z,78.30
2023-02-13T01:13:27.520Z,78.30
2023-02-13T01:15:55.843Z,78.20
2023-02-13T01:18:24.605Z,78.20
2023-02-13T01:21:01.030Z,78.10
2023-02-13T01:23:33.132Z,78.30
2023-02-13T01:26:01.689Z,79.10
2023-02-13T01:28:29.982Z,78.30
2023-02-13T01:30:59.666Z,78.30
2023-02-13T01:33:29.763Z,78.50
2023-02-13T01:35:58.190Z,78.50
2023-02-13T01:38:26.543Z,78.60
2023-02-13T01:40:56.433Z,78.50
2023-02-13T01:43:25.604Z,78.50
2023-02-13T01:45:57.573Z,78.40
2023-02-13T01:48:29.035Z,78.20
2023-02-13T01:51:00.987Z,78.20
2023-02-13T01:53:32.687Z,78.20
2023-02-13T01:56:08.047Z,78.00
2023-02-13T01:58:38.637Z,78.00
2023-02-13T02:01:09.709Z,78.00
2023-02-13T02:03:42.511Z,77.80
2023-02-13T02:06:17.377Z,78.10
2023-02-13T02:08:47.192Z,78.10
2023-02-13T02:11:27.134Z,78.00
2023-02-13T02:13:56.323Z,77.80
2023-02-13T02:16:26.537Z,77.50
2023-02-13T02:18:54.995Z,77.50
2023-02-13T02:21:51.821Z,77.40
2023-02-13T02:24:56.012Z,77.40
2023-02-13T02:27:39.575Z,77.40
2023-02-13T02:30:35.687Z,77.30
2023-02-13T02:33:19.508Z,77.40
2023-02-13T02:35:56.963Z,77.50
2023-02-13T02:38:41.702Z,77.50
2023-02-13T02:41:36.331Z,77.70
2023-02-13T02:44:16.759Z,77.70
2023-02-13T02:47:11.812Z,77.80
2023-02-13T02:50:03.144Z,77.80
2023-02-13T02:52:46.392Z,77.80
2023-02-13T02:55:25.292Z,77.70
2023-02-13T02:58:19.570Z,77.50
2023-02-13T03:01:06.885Z,77.50
2023-02-13T03:03:53.657Z,77.40
2023-02-13T03:06:28.610Z,77.40
2023-02-13T03:09:19.277Z,77.50
2023-02-13T03:12:09.042Z,77.40
2023-02-13T03:14:37.348Z,77.40
2023-02-13T03:17:23.632Z,77.40
2023-02-13T03:20:21.599Z,77.50
2023-02-13T03:23:04.325Z,77.50
2023-02-13T03:25:39.925Z,77.50
2023-02-13T03:28:32.302Z,77.40
2023-02-13T03:31:10.113Z,77.50
2023-02-13T03:33:51.805Z,77.50
2023-02-13T03:36:52.021Z,77.40
2023-02-13T03:39:25.393Z,77.40
2023-02-13T03:41:59.430Z,77.20
2023-02-13T03:44:32.517Z,77.20
2023-02-13T03:47:03.286Z,77.10
2023-02-13T03:49:52.874Z,77.10
2023-02-13T03:52:26.007Z,76.90
2023-02-13T03:55:15.892Z,76.90
2023-02-13T03:58:04.441Z,76.80
2023-02-13T04:00:39.191Z,76.70
2023-02-13T04:03:12.074Z,76.70
2023-02-13T04:05:44.365Z,76.60
2023-02-13T04:08:13.129Z,76.60
2023-02-13T04:10:51.463Z,76.60
2023-02-13T04:13:25.235Z,76.60
2023-02-13T04:15:59.531Z,76.60
2023-02-13T04:18:30.407Z,76.60
2023-02-13T04:20:59.123Z,76.80
2023-02-13T04:23:27.673Z,76.80
2023-02-13T04:25:58.319Z,76.70
2023-02-13T04:28:26.897Z,77.50
2023-02-13T04:30:55.339Z,76.60
2023-02-13T04:33:23.779Z,76.50
2023-02-13T04:35:52.109Z,76.50
2023-02-13T04:38:20.429Z,76.50
2023-02-13T04:40:48.694Z,76.50
2023-02-13T04:43:18.472Z,76.40
2023-02-13T04:45:50.137Z,76.40
2023-02-13T04:48:18.638Z,76.30
2023-02-13T04:50:48.090Z,76.30
2023-02-13T04:53:16.470Z,77.00
2023-02-13T04:55:44.964Z,76.10
2023-02-13T04:58:13.331Z,76.20
2023-02-13T05:00:43.096Z,76.30
2023-02-13T05:03:13.757Z,76.30
2023-02-13T05:05:42.403Z,76.30
2023-02-13T05:08:10.877Z,76.30
2023-02-13T05:10:39.200Z,76.30
2023-02-13T05:13:07.648Z,76.30
2023-02-13T05:15:36.193Z,76.30
2023-02-13T05:18:06.239Z,76.30
2023-02-13T05:20:34.493Z,76.30
2023-02-13T05:23:20.349Z,76.30
2023-02-13T05:25:48.646Z,76.30
2023-02-13T05:28:34.743Z,76.30
2023-02-13T05:31:03.441Z,76.30
2023-02-13T05:33:33.405Z,76.30
2023-02-13T05:36:01.745Z,76.30
2023-02-13T05:38:30.045Z,76.30
2023-02-13T05:41:00.633Z,76.30
2023-02-13T05:43:29.321Z,76.40
2023-02-13T05:46:07.863Z,76.50
2023-02-13T05:48:38.062Z,76.60
2023-02-13T05:51:06.975Z,76.60
2023-02-13T05:53:35.642Z,76.60
2023-02-13T05:56:04.536Z,76.80
2023-02-13T05:58:33.257Z,76.80
2023-02-13T06:01:02.033Z,76.80
2023-02-13T06:03:32.301Z,76.90
2023-02-13T06:06:02.030Z,76.90
2023-02-13T06:08:30.504Z,77.00
2023-02-13T06:10:59.139Z,77.00
2023-02-13T06:13:27.775Z,77.10
2023-02-13T06:15:56.234Z,77.30
2023-02-13T06:18:24.605Z,77.40
2023-02-13T06:20:52.937Z,77.60
2023-02-13T06:23:22.634Z,77.70
2023-02-13T06:25:51.016Z,77.60
2023-02-13T06:28:19.447Z,77.60
2023-02-13T06:30:49.091Z,77.50
2023-02-13T06:33:17.432Z,77.50
2023-02-13T06:35:45.774Z,77.40
2023-02-13T06:38:14.046Z,77.40
2023-02-13T06:40:43.957Z,77.20
2023-02-13T06:43:12.261Z,77.80
2023-02-13T06:45:40.541Z,77.90
2023-02-13T06:48:09.426Z,77.80
2023-02-13T06:50:37.703Z,77.80
2023-02-13T06:53:06.007Z,77.70
2023-02-13T06:55:34.390Z,77.60
2023-02-13T06:58:04.139Z,77.40
2023-02-13T07:00:32.674Z,77.20
2023-02-13T07:03:04.535Z,77.10
2023-02-13T07:05:33.131Z,77.10
2023-02-13T07:08:01.525Z,76.60
2023-02-13T07:10:29.909Z,76.60
2023-02-13T07:13:05.758Z,76.50
2023-02-13T07:15:36.488Z,75.90
2023-02-13T07:18:05.765Z,75.70
2023-02-13T07:20:34.826Z,75.00
2023-02-13T07:23:04.958Z,74.50
2023-02-13T07:25:33.594Z,74.70
2023-02-13T07:28:05.809Z,74.50
2023-02-13T07:30:42.589Z,74.40
2023-02-13T07:33:13.506Z,74.40
2023-02-13T07:35:47.382Z,74.20
2023-02-13T07:38:15.766Z,74.40
2023-02-13T07:40:48.199Z,73.90
2023-02-13T07:43:19.465Z,73.40
2023-02-13T07:45:49.252Z,73.30
2023-02-13T07:48:17.828Z,72.60
2023-02-13T07:50:46.124Z,72.10
2023-02-13T07:53:14.512Z,72.20
2023-02-13T07:55:42.956Z,71.00
2023-02-13T07:58:11.286Z,70.50
2023-02-13T08:00:39.691Z,70.90
2023-02-13T08:03:09.366Z,70.00
2023-02-13T08:05:38.885Z,69.70
2023-02-13T08:08:07.205Z,70.40
2023-02-13T08:10:53.365Z,70.50
2023-02-13T08:13:21.776Z,69.80
2023-02-13T08:15:50.072Z,68.40
2023-02-13T08:18:20.188Z,67.20
2023-02-13T08:20:48.636Z,67.30
2023-02-13T08:23:16.958Z,67.20
2023-02-13T08:25:45.301Z,65.70
2023-02-13T08:28:13.711Z,65.40
2023-02-13T08:30:42.130Z,64.20
2023-02-13T08:33:10.421Z,64.20
2023-02-13T08:35:40.071Z,63.80
2023-02-13T08:38:08.297Z,62.90
2023-02-13T08:40:36.701Z,63.20
2023-02-13T08:43:06.559Z,62.10
2023-02-13T08:45:35.227Z,62.20
2023-02-13T08:48:04.743Z,62.00
2023-02-13T08:50:35.088Z,62.30
2023-02-13T08:53:06.015Z,61.30
2023-02-13T08:55:34.388Z,61.50
2023-02-13T08:58:03.557Z,61.50
2023-02-13T09:00:32.523Z,61.80
2023-02-13T09:03:03.383Z,61.20
2023-02-13T09:05:33.024Z,60.00
2023-02-13T09:08:03.802Z,59.50
2023-02-13T09:10:34.133Z,59.70
2023-02-13T09:13:02.524Z,58.00
2023-02-13T09:15:31.095Z,57.50
2023-02-13T09:17:59.417Z,58.20
2023-02-13T09:20:27.992Z,58.50
2023-02-13T09:22:57.790Z,59.00
2023-02-13T09:25:26.495Z,59.40
2023-02-13T09:27:56.238Z,60.20
2023-02-13T09:30:24.901Z,59.60
2023-02-13T09:32:54.000Z,61.20
2023-02-13T09:35:23.172Z,59.90
2023-02-13T09:37:51.470Z,59.10
2023-02-13T09:40:26.686Z,59.40
2023-02-13T09:43:05.845Z,58.30
2023-02-13T09:45:35.607Z,58.20
2023-02-13T09:48:04.514Z,58.50
2023-02-13T09:50:35.217Z,57.80
2023-02-13T09:53:05.961Z,58.40
2023-02-13T09:55:48.265Z,58.90
2023-02-13T09:58:23.362Z,59.00
2023-02-13T10:00:57.034Z,58.70
2023-02-13T10:03:32.607Z,58.40
2023-02-13T10:06:09.529Z,58.80
2023-02-13T10:08:54.549Z,58.50
2023-02-13T10:11:34.296Z,58.60
2023-02-13T10:14:12.998Z,58.30
2023-02-13T10:16:46.257Z,58.90
2023-02-13T10:19:25.113Z,58.90
2023-02-13T10:21:56.137Z,58.40
2023-02-13T10:24:34.129Z,58.40
2023-02-13T10:27:12.408Z,58.70
2023-02-13T10:30:05.037Z,59.00
2023-02-13T10:32:40.643Z,59.70
2023-02-13T10:35:21.852Z,58.80
2023-02-13T10:37:53.056Z,59.20
2023-02-13T10:40:21.810Z,58.60
2023-02-13T10:42:59.993Z,58.90
2023-02-13T10:45:48.947Z,59.40
2023-02-13T10:48:34.091Z,59.30
2023-02-13T10:51:09.979Z,59.10
2023-02-13T10:53:50.574Z,59.00
2023-02-13T10:56:34.692Z,60.10
2023-02-13T10:59:30.288Z,59.20
2023-02-13T11:02:04.895Z,59.20
2023-02-13T11:04:34.006Z,59.10
2023-02-13T11:07:03.923Z,59.50
2023-02-13T11:09:38.447Z,58.90
2023-02-13T11:12:25.477Z,59.10
2023-02-13T11:14:59.067Z,59.70
2023-02-13T11:17:31.410Z,59.70
2023-02-13T11:20:01.533Z,58.60
2023-02-13T11:22:33.789Z,58.30
2023-02-13T11:25:05.408Z,57.50
2023-02-13T11:27:36.631Z,58.40
2023-02-13T11:30:27.710Z,58.00
2023-02-13T11:33:01.120Z,58.30
2023-02-13T11:35:32.329Z,58.50
2023-02-13T11:38:22.156Z,58.30
2023-02-13T11:40:53.975Z,58.20
2023-02-13T11:43:29.785Z,57.90
2023-02-13T11:46:06.814Z,57.50
2023-02-13T11:48:37.237Z,58.10
2023-02-13T11:51:05.997Z,57.70
2023-02-13T11:53:39.443Z,57.50
2023-02-13T11:56:15.674Z,58.00
2023-02-13T11:58:44.400Z,58.30
2023-02-13T12:01:29.590Z,58.00
2023-02-13T12:04:08.696Z,57.70
2023-02-13T12:06:40.874Z,57.90
2023-02-13T12:09:15.557Z,57.40
2023-02-13T12:11:47.420Z,57.70
2023-02-13T12:14:21.120Z,58.00
2023-02-13T12:16:54.094Z,58.00
2023-02-13T12:19:29.889Z,58.30
2023-02-13T12:22:17.051Z,58.10
2023-02-13T12:25:19.380Z,58.10
2023-02-13T12:27:57.937Z,58.20
2023-02-13T12:31:06.103Z,58.00
2023-02-13T12:33:55.305Z,57.60
2023-02-13T12:36:31.234Z,57.20
2023-02-13T12:39:15.171Z,57.30
2023-02-13T12:41:51.890Z,57.60
2023-02-13T12:44:50.616Z,57.70
2023-02-13T12:47:23.092Z,56.40
2023-02-13T12:50:18.756Z,54.70
2023-02-13T12:53:18.054Z,55.40
2023-02-13T12:56:08.968Z,55.10
2023-02-13T12:59:07.301Z,55.50
2023-02-13T13:02:04.856Z,55.40
2023-02-13T13:04:42.335Z,55.00
2023-02-13T13:07:40.082Z,54.60
2023-02-13T13:10:26.245Z,54.20
2023-02-13T13:13:04.695Z,54.80
2023-02-13T13:15:41.512Z,54.30
2023-02-13T13:18:23.292Z,54.60
2023-02-13T13:21:03.737Z,54.20
2023-02-13T13:23:35.081Z,54.10
2023-02-13T13:26:12.647Z,54.10
2023-02-13T13:28:44.389Z,54.40
2023-02-13T13:31:14.305Z,54.70
2023-02-13T13:33:44.977Z,54.80
2023-02-13T13:36:20.435Z,53.20
2023-02-13T13:38:58.981Z,53.00
2023-02-13T13:41:39.435Z,50.70
2023-02-13T13:44:37.372Z,50.90
2023-02-13T13:47:16.190Z,49.50
2023-02-13T13:49:52.765Z,48.00
2023-02-13T13:52:25.688Z,45.70
2023-02-13T13:54:54.960Z,44.90
2023-02-13T13:57:25.212Z,45.90
2023-02-13T14:00:29.386Z,43.70
2023-02-13T14:03:24.127Z,40.60
2023-02-13T14:06:11.469Z,40.20
2023-02-13T14:09:22.349Z,38.60
2023-02-13T14:11:50.734Z,38.00
2023-02-13T14:14:54.003Z,37.40
2023-02-13T14:17:53.156Z,37.50
2023-02-13T14:20:32.720Z,39.10
2023-02-13T14:23:14.801Z,40.50
2023-02-13T14:25:43.260Z,39.80
2023-02-13T14:28:23.516Z,38.80
2023-02-13T14:30:56.838Z,38.70
2023-02-13T14:33:28.840Z,39.40
2023-02-13T14:36:07.330Z,39.60
2023-02-13T14:38:36.727Z,39.80
2023-02-13T14:41:07.350Z,41.00
2023-02-13T14:43:40.209Z,41.50
2023-02-13T14:46:31.643Z,41.90
2023-02-13T14:49:04.357Z,41.90
2023-02-13T14:51:37.362Z,42.60
2023-02-13T14:54:11.289Z,41.80
2023-02-13T14:56:40.832Z,42.00
2023-02-13T14:59:16.082Z,42.70
2023-02-13T15:01:52.875Z,43.40
2023-02-13T15:04:29.658Z,44.10
2023-02-13T15:07:00.888Z,44.70
2023-02-13T15:09:36.093Z,45.30
2023-02-13T15:12:04.392Z,45.80
2023-02-13T15:14:34.819Z,46.40
2023-02-13T15:17:08.874Z,46.80
2023-02-13T15:19:40.615Z,47.30
2023-02-13T15:22:09.483Z,47.80
2023-02-13T15:24:44.773Z,48.30
2023-02-13T15:27:19.667Z,48.70
2023-02-13T15:30:00.005Z,49.20
2023-02-13T15:32:33.101Z,49.60
2023-02-13T15:35:01.748Z,49.90
2023-02-13T15:37:32.028Z,50.30
2023-02-13T15:40:23.208Z,50.70
2023-02-13T15:42:51.830Z,51.10
2023-02-13T15:45:21.865Z,51.40
2023-02-13T15:47:52.294Z,51.70
2023-02-13T15:50:25.293Z,52.10
2023-02-13T15:53:00.299Z,52.50
2023-02-13T15:55:31.525Z,52.80
2023-02-13T15:58:02.435Z,53.00
2023-02-13T16:00:33.272Z,53.30
2023-02-13T16:03:06.030Z,53.60
2023-02-13T16:05:40.915Z,53.80
2023-02-13T16:08:32.859Z,54.10
2023-02-13T16:11:29.817Z,54.50
2023-02-13T16:14:03.889Z,54.90
2023-02-13T16:16:36.076Z,55.00
2023-02-13T16:19:08.874Z,55.30
2023-02-13T16:21:37.411Z,55.70
2023-02-13T16:24:08.791Z,55.90
2023-02-13T16:26:39.336Z,56.00
2023-02-13T16:29:12.548Z,56.40
2023-02-13T16:31:41.315Z,56.70
2023-02-13T16:34:26.233Z,56.80
2023-02-13T16:36:55.195Z,57.20
2023-02-13T16:39:29.069Z,57.30
2023-02-13T16:41:58.310Z,57.60
2023-02-13T16:44:29.409Z,57.80
2023-02-13T16:47:01.479Z,58.00
2023-02-13T16:49:33.697Z,58.30
2023-02-13T16:52:18.051Z,58.50
2023-02-13T16:54:53.892Z,58.70
2023-02-13T16:57:30.192Z,58.90
2023-02-13T17:00:15.684Z,59.00
2023-02-13T17:02:44.042Z,59.20
2023-02-13T17:05:31.454Z,59.40
2023-02-13T17:08:01.752Z,59.70
2023-02-13T17:10:33.812Z,59.70
2023-02-13T17:13:04.327Z,60.00
2023-02-13T17:15:33.476Z,60.30
2023-02-13T17:18:02.027Z,60.50
2023-02-13T17:20:33.670Z,60.90
2023-02-13T17:23:03.208Z,61.10
2023-02-13T17:25:33.282Z,61.50
2023-02-13T17:28:03.707Z,61.70
2023-02-13T17:30:33.844Z,61.90
2023-02-13T17:33:07.518Z,62.30
2023-02-13T17:35:37.538Z,62.60
2023-02-13T17:38:06.401Z,62.70
2023-02-13T17:40:34.797Z,63.00
2023-02-13T17:43:04.505Z,63.30
2023-02-13T17:45:34.704Z,63.70
2023-02-13T17:48:03.054Z,63.90
2023-02-13T17:50:32.659Z,64.00
2023-02-13T17:53:04.039Z,64.30
2023-02-13T17:55:34.365Z,64.50
2023-02-13T17:58:03.030Z,64.70
2023-02-13T18:00:35.528Z,65.00
2023-02-13T18:03:04.652Z,65.30
2023-02-13T18:05:33.846Z,67.00
2023-02-13T18:08:03.761Z,66.90
2023-02-13T18:10:34.596Z,66.80
2023-02-13T18:13:05.205Z,66.90
2023-02-13T18:15:34.419Z,68.20
2023-02-13T18:18:02.965Z,68.10
2023-02-13T18:20:31.326Z,68.50
2023-02-13T18:22:59.847Z,68.40
2023-02-13T18:25:29.731Z,68.50
2023-02-13T18:27:58.128Z,68.80
2023-02-13T18:30:26.688Z,68.80
2023-02-13T18:32:56.674Z,68.80
2023-02-13T18:35:25.204Z,68.80
2023-02-13T18:37:53.853Z,68.80
2023-02-13T18:40:22.580Z,68.80
2023-02-13T18:42:52.537Z,68.80
2023-02-13T18:45:20.914Z,69.10
2023-02-13T18:47:49.273Z,69.50
2023-02-13T18:50:17.610Z,69.90
2023-02-13T18:52:46.847Z,70.20
2023-02-13T18:55:15.205Z,70.60
2023-02-13T18:57:45.507Z,70.30
2023-02-13T19:00:17.484Z,70.40
2023-02-13T19:02:45.870Z,70.60
2023-02-13T19:05:14.181Z,70.60
2023-02-13T19:07:42.505Z,70.60
2023-02-13T19:10:11.549Z,71.20
2023-02-13T19:12:39.905Z,71.10
2023-02-13T19:15:09.853Z,71.60
2023-02-13T19:17:39.740Z,72.00
2023-02-13T19:20:09.346Z,72.00
2023-02-13T19:22:37.796Z,71.80
2023-02-13T19:25:06.394Z,71.80
2023-02-13T19:27:38.206Z,71.90
2023-02-13T19:30:09.565Z,72.00
2023-02-13T19:32:39.456Z,72.10
2023-02-13T19:35:08.438Z,72.60
2023-02-13T19:37:43.725Z,72.70
2023-02-13T19:40:13.793Z,72.70
2023-02-13T19:42:42.081Z,72.70
2023-02-13T19:45:11.431Z,73.10
2023-02-13T19:47:41.257Z,73.80
2023-02-13T19:50:10.197Z,73.20
2023-02-13T19:52:38.670Z,73.20
2023-02-13T19:55:07.489Z,73.30
2023-02-13T19:57:35.868Z,73.50
2023-02-13T20:00:05.119Z,73.70
2023-02-13T20:02:33.494Z,74.10
2023-02-13T20:05:07.095Z,74.40
2023-02-13T20:07:35.448Z,74.90
2023-02-13T20:10:03.818Z,75.00
2023-02-13T20:12:32.261Z,75.00
2023-02-13T20:15:00.661Z,75.20
2023-02-13T20:17:29.030Z,75.50
2023-02-13T20:19:58.107Z,75.60
2023-02-13T20:22:27.964Z,76.10
2023-02-13T20:24:56.343Z,76.00
2023-02-13T20:27:24.706Z,76.10
2023-02-13T20:29:58.866Z,76.20
2023-02-13T20:32:34.854Z,76.10
2023-02-13T20:35:03.217Z,76.50
2023-02-13T20:37:33.852Z,76.60
2023-02-13T20:40:02.542Z,77.10
2023-02-13T20:42:33.811Z,77.10
2023-02-13T20:45:03.078Z,77.20
2023-02-13T20:47:31.552Z,77.60
2023-02-13T20:50:00.079Z,77.60
2023-02-13T20:52:28.404Z,77.60
2023-02-13T20:55:07.835Z,77.80
2023-02-13T20:57:36.326Z,77.80
2023-02-13T21:00:06.656Z,77.70
2023-02-13T21:02:35.157Z,77.60
2023-02-13T21:05:03.682Z,77.70
2023-02-13T21:07:32.087Z,77.70
2023-02-13T21:10:01.812Z,77.60
2023-02-13T21:12:30.191Z,77.50
2023-02-13T21:14:58.420Z,77.90
2023-02-13T21:17:26.788Z,78.40
2023-02-13T21:19:55.083Z,78.80
2023-02-13T21:22:23.406Z,79.20
2023-02-13T21:24:52.401Z,79.40
2023-02-13T21:27:22.497Z,79.80
2023-02-13T21:29:50.842Z,80.00
2023-02-13T21:32:20.340Z,80.20
2023-02-13T21:34:48.679Z,80.40
2023-02-13T21:37:17.667Z,80.40
2023-02-13T21:39:46.006Z,80.20
2023-02-13T21:42:14.353Z,80.20
2023-02-13T21:44:44.034Z,80.30
2023-02-13T21:47:12.386Z,80.30
2023-02-13T21:49:40.830Z,80.40
2023-02-13T21:52:09.193Z,80.50
2023-02-13T21:54:37.552Z,80.80
2023-02-13T21:57:06.044Z,81.30
2023-02-13T21:59:34.328Z,81.10
2023-02-13T22:02:04.197Z,81.10
2023-02-13T22:04:32.789Z,80.70
2023-02-13T22:07:01.082Z,80.50
2023-02-13T22:09:29.456Z,81.10
2023-02-13T22:11:57.697Z,81.00
2023-02-13T22:14:26.049Z,80.80
2023-02-13T22:16:54.492Z,80.70
2023-02-13T22:19:24.430Z,80.60
2023-02-13T22:21:52.710Z,80.40
2023-02-13T22:24:21.027Z,80.40
2023-02-13T22:26:49.432Z,80.50
2023-02-13T22:29:21.669Z,80.50
2023-02-13T22:31:50.376Z,80.50
2023-02-13T22:34:19.653Z,80.50
2023-02-13T22:36:49.378Z,80.40
2023-02-13T22:39:17.750Z,80.20
2023-02-13T22:41:46.046Z,80.20
2023-02-13T22:44:14.444Z,80.40
2023-02-13T22:46:42.822Z,80.20
2023-02-13T22:49:11.226Z,80.10
2023-02-13T22:51:39.685Z,80.00
2023-02-13T22:54:09.372Z,80.00
2023-02-13T22:56:37.693Z,80.00
2023-02-13T22:59:06.010Z,79.70
2023-02-13T23:01:34.461Z,79.70
2023-02-13T23:04:02.828Z,79.70
2023-02-13T23:06:31.293Z,79.60
2023-02-13T23:08:59.621Z,79.60
2023-02-13T23:11:47.584Z,79.50
2023-02-13T23:14:16.576Z,79.40
2023-02-13T23:17:02.919Z,79.20
2023-02-13T23:19:32.117Z,79.20
2023-02-13T23:22:00.681Z,79.10
2023-02-13T23:24:29.481Z,79.10
2023-02-13T23:26:59.536Z,79.40
2023-02-13T23:29:28.304Z,79.20
2023-02-13T23:31:56.901Z,79.10
2023-02-13T23:34:25.403Z,79.20
2023-02-13T23:36:53.759Z,79.20
2023-02-13T23:39:24.308Z,79.50
2023-02-13T23:41:52.649Z,79.40
2023-02-13T23:44:25.327Z,79.30
2023-02-13T23:46:53.588Z,79.30
2023-02-13T23:49:22.281Z,79.70
2023-02-13T23:51:50.676Z,79.70
2023-02-13T23:54:21.351Z,80.00
2023-02-13T23:56:51.236Z,79.80
2023-02-13T23:59:22.547Z,79.70
